sim
Sign-in with your pilot id or email,
or register
Callsign
Passwort

Schedule Details

Flight Number: RYR3805 (1)
Departure: Manchester Airport (EGCC) at 06:25
Arrival: Fuerteventura Airport (GCFV) at 10:40
Route: Ryanair Passenger Schedule. Enter filed route here before submitting Pirep.

Weather Information
Getting current METAR information for EGCC 192150Z AUTO 10003KT 9999 NCD 13/06 Q1032 NOSIG
Getting current METAR information for GCFV 192130Z 35016KT 9999 FEW040 SCT048 18/12 Q1018

Schedule Frequency

Route Map